Time;durP1;ratioP1;P1;durP2;ratioP2;P2;SDS_P1;SDS_P2;PMS_P1;PMS_P2;Temp;Humidity;BMP_temperature;BMP_pressure;BME280_temperature;BME280_humidity;BME280_pressure;Samples;Min_cycle;Max_cycle;Signal;HPM_P1;HPM_P2
2023/09/22 00:00:00;;;;;;;0.30;0.30;;;13.20;99.90;;;;;;5104318;28;20051;-74
2023/09/22 00:02:26;;;;;;;0.20;0.20;;;13.20;99.90;;;;;;5106375;28;20050;-74
2023/09/22 00:04:52;;;;;;;;;;;13.20;99.90;;;;;;5104034;28;20039;-74
2023/09/22 00:07:18;;;;;;;0.20;0.20;;;13.20;99.90;;;;;;5103017;28;19919;-74
2023/09/22 00:09:44;;;;;;;0.30;0.30;;;13.20;99.90;;;;;;5107419;28;20039;-74
2023/09/22 00:12:09;;;;;;;0.30;0.30;;;13.30;99.90;;;;;;5107156;28;20478;-74
2023/09/22 00:14:36;;;;;;;0.30;0.30;;;13.20;99.90;;;;;;5106282;28;20101;-74
2023/09/22 00:17:02;;;;;;;0.30;0.30;;;13.20;99.90;;;;;;5104759;28;20063;-74
2023/09/22 00:19:28;;;;;;;0.20;0.20;;;13.20;99.90;;;;;;5098914;28;20052;-73
2023/09/22 00:21:55;;;;;;;0.20;0.20;;;13.20;99.90;;;;;;5107441;28;20598;-74
2023/09/22 00:24:22;;;;;;;0.20;0.20;;;13.20;99.90;;;;;;5089341;28;20389;-74
2023/09/22 00:26:47;;;;;;;0.30;0.30;;;12.90;99.90;;;;;;5106366;28;20390;-74
2023/09/22 00:29:13;;;;;;;0.30;0.30;;;13.30;99.90;;;;;;5105315;28;20044;-74
2023/09/22 00:31:39;;;;;;;0.30;0.30;;;13.30;99.90;;;;;;5106521;28;20047;-75
2023/09/22 00:34:04;;;;;;;;;;;13.30;99.90;;;;;;5106545;28;20043;-74
2023/09/22 00:36:32;;;;;;;0.40;0.40;;;13.30;99.90;;;;;;5104840;28;19958;-73
2023/09/22 00:38:58;;;;;;;0.20;0.20;;;13.30;99.90;;;;;;5104049;28;20047;-74
2023/09/22 00:41:23;;;;;;;0.30;0.30;;;13.30;99.90;;;;;;5106348;28;20043;-74
2023/09/22 00:43:49;;;;;;;0.30;0.30;;;13.30;99.90;;;;;;5106877;28;20375;-76
2023/09/22 00:46:19;;;;;;;0.20;0.20;;;13.30;99.90;;;;;;5106583;28;20044;-74
2023/09/22 00:48:45;;;;;;;0.20;0.20;;;13.40;99.90;;;;;;5104512;28;20052;-74
2023/09/22 00:51:12;;;;;;;0.30;0.30;;;13.40;99.90;;;;;;5104322;28;20039;-74
2023/09/22 00:53:39;;;;;;;0.30;0.30;;;13.40;99.90;;;;;;5103964;28;20130;-74
2023/09/22 00:56:06;;;;;;;0.30;0.30;;;13.40;99.90;;;;;;5104085;28;20052;-74
2023/09/22 00:58:32;;;;;;;0.28;0.28;;;13.40;99.90;;;;;;5101041;28;20082;-74
2023/09/22 01:00:58;;;;;;;0.30;0.30;;;13.40;99.90;;;;;;5103903;28;20455;-74
2023/09/22 01:03:24;;;;;;;0.40;0.40;;;13.40;99.90;;;;;;5099248;28;20056;-74
2023/09/22 01:05:50;;;;;;;0.20;0.20;;;13.40;99.90;;;;;;5109387;27;20044;-74
2023/09/22 01:08:16;;;;;;;0.75;0.70;;;13.50;99.90;;;;;;5100565;28;20066;-74
2023/09/22 01:10:43;;;;;;;0.30;0.30;;;13.50;99.90;;;;;;5104392;28;20389;-74
2023/09/22 01:13:09;;;;;;;0.35;0.35;;;13.50;99.90;;;;;;5103912;28;20541;-74
2023/09/22 01:15:36;;;;;;;0.30;0.30;;;13.50;99.90;;;;;;5105037;28;20074;-74
2023/09/22 01:18:04;;;;;;;0.20;0.20;;;13.40;99.90;;;;;;5104278;28;20163;-74
2023/09/22 01:20:30;;;;;;;0.20;0.20;;;13.40;99.90;;;;;;5104293;28;20766;-74
2023/09/22 01:22:56;;;;;;;0.30;0.30;;;13.40;99.90;;;;;;5104859;28;20374;-74
2023/09/22 01:25:22;;;;;;;0.30;0.30;;;13.40;99.90;;;;;;5103279;28;20047;-74
2023/09/22 01:27:48;;;;;;;;;;;13.30;99.90;;;;;;5106941;27;20052;-74
2023/09/22 01:30:14;;;;;;;0.43;0.43;;;13.30;99.90;;;;;;5104696;28;19927;-74
2023/09/22 01:32:40;;;;;;;0.22;0.22;;;13.30;99.90;;;;;;5104030;28;20078;-75
2023/09/22 01:35:10;;;;;;;0.63;0.63;;;13.30;99.90;;;;;;5103732;28;20039;-75
2023/09/22 01:37:57;;;;;;;0.35;0.35;;;12.40;99.90;;;;;;5099627;28;20060;-75
2023/09/22 01:40:23;;;;;;;;;;;13.30;99.90;;;;;;5120889;27;20513;-74
2023/09/22 01:42:48;;;;;;;1.92;0.57;;;13.20;99.90;;;;;;5107729;28;19959;-74
2023/09/22 01:45:14;;;;;;;0.35;0.35;;;13.20;99.90;;;;;;5104076;28;20044;-74
2023/09/22 01:47:40;;;;;;;0.40;0.40;;;13.20;99.90;;;;;;5103399;28;20449;-74
2023/09/22 01:50:08;;;;;;;0.40;0.40;;;13.10;99.90;;;;;;5101902;28;20051;-75
2023/09/22 01:52:34;;;;;;;0.20;0.20;;;13.00;99.90;;;;;;5104764;28;20185;-75
2023/09/22 01:55:00;;;;;;;0.60;0.40;;;13.00;99.90;;;;;;5105008;28;20043;-74
2023/09/22 01:57:25;;;;;;;0.32;0.32;;;12.80;99.90;;;;;;5105719;28;21081;-74
2023/09/22 01:59:51;;;;;;;0.32;0.32;;;13.00;99.90;;;;;;5104061;28;20075;-73
2023/09/22 02:02:17;;;;;;;0.52;0.50;;;13.00;99.90;;;;;;5105958;28;20043;-73
2023/09/22 02:04:42;;;;;;;0.40;0.40;;;13.10;99.90;;;;;;5104749;28;20153;-74
2023/09/22 02:07:08;;;;;;;0.93;0.90;;;13.20;99.90;;;;;;5099682;28;20082;-74
2023/09/22 02:09:34;;;;;;;0.80;0.80;;;13.20;99.90;;;;;;5105512;27;20642;-73
2023/09/22 02:12:00;;;;;;;0.45;0.45;;;13.30;99.90;;;;;;5106689;27;20051;-73
2023/09/22 02:14:26;;;;;;;1.75;0.80;;;13.40;99.90;;;;;;5100289;28;20040;-73
2023/09/22 02:16:51;;;;;;;1.05;1.05;;;13.40;99.90;;;;;;5103357;28;20046;-74
2023/09/22 02:19:17;;;;;;;0.30;0.30;;;13.40;99.90;;;;;;5100909;28;20051;-74
2023/09/22 02:21:43;;;;;;;;;;;13.50;99.90;;;;;;5100667;28;20048;-74
2023/09/22 02:24:09;;;;;;;0.22;0.22;;;13.50;99.90;;;;;;5104427;27;20409;-73
2023/09/22 02:26:35;;;;;;;0.57;0.57;;;13.40;99.90;;;;;;5100698;28;20052;-73
2023/09/22 02:29:01;;;;;;;0.60;0.60;;;13.40;99.90;;;;;;5101277;28;20162;-74
2023/09/22 02:31:27;;;;;;;0.30;0.30;;;13.40;99.90;;;;;;5100357;28;20109;-74
2023/09/22 02:33:53;;;;;;;0.30;0.30;;;13.40;99.90;;;;;;5101030;28;20361;-74
2023/09/22 02:36:19;;;;;;;0.47;0.47;;;13.50;99.90;;;;;;5101503;28;20051;-74
2023/09/22 02:38:45;;;;;;;0.73;0.70;;;13.50;99.90;;;;;;5103082;28;21037;-74
2023/09/22 02:41:14;;;;;;;0.30;0.30;;;13.50;99.90;;;;;;5102358;28;20085;-74
2023/09/22 02:43:39;;;;;;;0.50;0.50;;;13.50;99.90;;;;;;5102870;28;20115;-73
2023/09/22 02:46:05;;;;;;;0.68;0.68;;;13.50;99.90;;;;;;5102281;28;20134;-74
2023/09/22 02:48:31;;;;;;;0.68;0.68;;;13.60;99.90;;;;;;5100960;28;20474;-74
2023/09/22 02:50:57;;;;;;;;;;;13.60;99.90;;;;;;5103932;28;20043;-74
2023/09/22 02:53:23;;;;;;;1.15;0.90;;;13.70;99.90;;;;;;5103974;28;19931;-74
2023/09/22 02:55:48;;;;;;;1.33;1.08;;;13.70;99.90;;;;;;5102113;28;20055;-74
2023/09/22 02:58:14;;;;;;;;;;;13.70;99.90;;;;;;5102142;28;20398;-74
2023/09/22 03:00:44;;;;;;;0.60;0.60;;;13.70;99.90;;;;;;5100607;28;20011;-74
2023/09/22 03:03:12;;;;;;;0.63;0.52;;;13.80;99.90;;;;;;5104012;28;20039;-74
2023/09/22 03:05:38;;;;;;;0.65;0.60;;;13.80;99.90;;;;;;5102389;28;20047;-74
2023/09/22 03:08:04;;;;;;;;;;;13.80;99.90;;;;;;5102163;28;20084;-74
2023/09/22 03:10:33;;;;;;;0.47;0.47;;;13.80;99.90;;;;;;5104934;28;19980;-74
2023/09/22 03:12:59;;;;;;;0.95;0.95;;;13.80;99.90;;;;;;5104027;28;20040;-74
2023/09/22 03:15:25;;;;;;;3.92;1.02;;;13.80;99.90;;;;;;5101962;28;20040;-73
2023/09/22 03:17:51;;;;;;;1.73;1.23;;;13.80;99.90;;;;;;5098520;28;20103;-74
2023/09/22 03:20:17;;;;;;;;;;;13.80;99.90;;;;;;5105150;28;20058;-73
2023/09/22 03:22:43;;;;;;;1.55;0.85;;;13.80;99.90;;;;;;5102876;28;20010;-74
2023/09/22 03:25:10;;;;;;;2.55;2.40;;;13.80;99.90;;;;;;5102335;28;20040;-74
2023/09/22 03:27:36;;;;;;;1.35;1.08;;;13.80;99.90;;;;;;5104387;28;20066;-74
2023/09/22 03:30:04;;;;;;;2.10;1.95;;;13.80;99.90;;;;;;5101677;28;20044;-75
2023/09/22 03:32:29;;;;;;;0.75;0.75;;;13.80;99.90;;;;;;5099647;28;20044;-74
2023/09/22 03:34:57;;;;;;;1.08;0.98;;;13.80;99.90;;;;;;5101257;28;20104;-74
2023/09/22 03:37:27;;;;;;;1.23;0.55;;;13.70;99.90;;;;;;5110862;28;20067;-73
2023/09/22 03:39:56;;;;;;;0.20;0.20;;;13.60;99.90;;;;;;5101007;28;20054;-73
2023/09/22 03:42:23;;;;;;;0.47;0.47;;;13.50;99.90;;;;;;5102521;28;20052;-73
2023/09/22 03:44:49;;;;;;;0.90;0.60;;;13.40;99.90;;;;;;5105479;28;20062;-73
2023/09/22 03:47:15;;;;;;;0.88;0.88;;;13.30;99.90;;;;;;5100096;28;20086;-73
2023/09/22 03:49:40;;;;;;;0.68;0.68;;;13.30;99.90;;;;;;5102261;28;20067;-73
2023/09/22 03:52:06;;;;;;;0.47;0.47;;;13.20;99.90;;;;;;5102920;28;20050;-73
2023/09/22 03:54:32;;;;;;;;;;;13.20;99.90;;;;;;5103095;28;20067;-73
2023/09/22 03:56:57;;;;;;;0.57;0.57;;;13.10;99.90;;;;;;5105916;28;19976;-73
2023/09/22 03:59:23;;;;;;;;;;;13.10;99.90;;;;;;5105171;28;20039;-73
2023/09/22 04:01:49;;;;;;;0.50;0.50;;;13.00;99.90;;;;;;5103951;28;20240;-74
2023/09/22 04:04:15;;;;;;;0.75;0.60;;;13.00;99.90;;;;;;5104496;28;20107;-74
2023/09/22 04:06:40;;;;;;;1.63;0.55;;;13.00;99.90;;;;;;5107177;28;20092;-73
2023/09/22 04:09:07;;;;;;;1.00;1.00;;;13.10;99.90;;;;;;5102805;28;20055;-73
2023/09/22 04:11:36;;;;;;;0.50;0.50;;;13.10;99.90;;;;;;5106941;27;20048;-73
2023/09/22 04:14:02;;;;;;;0.20;0.20;;;13.20;99.90;;;;;;5106249;28;20048;-73
2023/09/22 04:16:29;;;;;;;0.43;0.43;;;13.20;99.90;;;;;;5104206;28;20040;-73
2023/09/22 04:18:54;;;;;;;;;;;13.20;99.90;;;;;;5105075;28;20083;-73
2023/09/22 04:21:22;;;;;;;0.57;0.57;;;13.30;99.90;;;;;;5104571;28;19967;-73
2023/09/22 04:23:57;;;;;;;0.40;0.40;;;13.20;99.90;;;;;;5106485;28;20079;-73
2023/09/22 04:26:27;;;;;;;1.17;1.15;;;13.30;99.90;;;;;;5103082;28;20051;-73
2023/09/22 04:28:55;;;;;;;0.75;0.75;;;13.30;99.90;;;;;;5102263;28;20061;-73
2023/09/22 04:31:23;;;;;;;1.05;1.02;;;13.20;99.90;;;;;;5104279;28;20038;-73
2023/09/22 04:33:49;;;;;;;0.75;0.70;;;13.20;99.90;;;;;;5106050;28;20056;-72
2023/09/22 04:36:15;;;;;;;0.30;0.30;;;13.30;99.90;;;;;;5102680;28;20059;-73
2023/09/22 04:38:40;;;;;;;0.40;0.40;;;13.20;99.90;;;;;;5104897;28;20058;-73
2023/09/22 04:41:06;;;;;;;0.68;0.68;;;13.30;99.90;;;;;;5105266;28;20703;-73
2023/09/22 04:43:35;;;;;;;;;;;13.30;99.90;;;;;;5103464;28;20040;-74
2023/09/22 04:46:02;;;;;;;1.48;1.35;;;13.20;99.90;;;;;;5102125;28;19927;-73
2023/09/22 04:48:28;;;;;;;0.60;0.60;;;13.20;99.90;;;;;;5105243;28;20109;-73
2023/09/22 04:50:54;;;;;;;0.40;0.40;;;13.20;99.90;;;;;;5102930;28;20040;-73
2023/09/22 04:53:20;;;;;;;1.65;1.55;;;13.20;99.90;;;;;;5100490;28;20151;-73
2023/09/22 04:55:47;;;;;;;2.30;0.75;;;13.20;99.90;;;;;;5106382;28;20476;-73
2023/09/22 04:58:14;;;;;;;0.75;0.55;;;13.20;99.90;;;;;;5105464;28;20134;-73
2023/09/22 05:00:40;;;;;;;4.10;1.00;;;13.30;99.90;;;;;;5103945;27;20039;-74
2023/09/22 05:03:07;;;;;;;0.70;0.70;;;13.30;99.90;;;;;;5105265;28;20043;-73
2023/09/22 05:05:33;;;;;;;0.88;0.85;;;13.30;99.90;;;;;;5104730;27;20044;-73
2023/09/22 05:07:59;;;;;;;1.00;1.00;;;13.30;99.90;;;;;;5104011;28;20043;-73
2023/09/22 05:10:25;;;;;;;2.63;1.15;;;13.30;99.90;;;;;;5102773;27;20047;-73
2023/09/22 05:12:51;;;;;;;0.47;0.47;;;13.30;99.90;;;;;;5105205;27;20050;-73
2023/09/22 05:15:17;;;;;;;2.00;1.90;;;13.40;99.90;;;;;;5102094;28;20481;-72
2023/09/22 05:17:43;;;;;;;1.05;1.05;;;13.30;99.90;;;;;;5107200;27;20101;-73
2023/09/22 05:20:12;;;;;;;2.17;1.85;;;13.40;99.90;;;;;;5103669;28;20410;-73
2023/09/22 05:22:38;;;;;;;1.25;1.25;;;13.30;99.90;;;;;;5103758;28;20039;-73
2023/09/22 05:25:05;;;;;;;1.33;1.23;;;13.30;99.90;;;;;;5104762;28;20116;-73
2023/09/22 05:27:31;;;;;;;0.93;0.93;;;13.30;99.90;;;;;;5104045;28;20046;-72
2023/09/22 05:29:57;;;;;;;0.60;0.60;;;13.30;99.90;;;;;;5105788;28;20048;-74
2023/09/22 05:32:23;;;;;;;0.57;0.57;;;13.30;99.90;;;;;;5101157;28;20100;-72
2023/09/22 05:34:51;;;;;;;3.05;2.78;;;13.30;99.90;;;;;;5108054;28;20050;-72
2023/09/22 05:37:19;;;;;;;0.40;0.40;;;13.30;99.90;;;;;;5103730;28;20504;-72
2023/09/22 05:39:44;;;;;;;2.97;1.25;;;13.20;99.90;;;;;;5104702;28;20535;-73
2023/09/22 05:42:11;;;;;;;0.40;0.40;;;13.10;99.90;;;;;;5103160;28;20043;-72
2023/09/22 05:44:37;;;;;;;0.80;0.80;;;13.10;99.90;;;;;;5104924;28;20409;-72
2023/09/22 05:47:04;;;;;;;1.83;1.73;;;13.10;99.90;;;;;;5103066;28;20162;-72
2023/09/22 05:49:30;;;;;;;1.23;1.20;;;13.10;99.90;;;;;;5099207;28;20152;-73
2023/09/22 05:51:56;;;;;;;1.55;1.45;;;13.10;99.90;;;;;;5102126;28;20055;-72
2023/09/22 05:54:21;;;;;;;1.45;1.35;;;13.10;99.90;;;;;;5103105;28;20043;-74
2023/09/22 05:56:47;;;;;;;;;;;13.10;99.90;;;;;;5102323;28;20432;-72
2023/09/22 05:59:13;;;;;;;0.57;0.40;;;13.00;99.90;;;;;;5099974;28;19971;-72
2023/09/22 06:01:39;;;;;;;1.48;1.38;;;13.00;99.90;;;;;;5102404;28;20047;-73
2023/09/22 06:04:05;;;;;;;0.65;0.65;;;13.00;99.90;;;;;;5098771;28;20084;-73
2023/09/22 06:06:32;;;;;;;1.20;1.20;;;13.00;99.90;;;;;;5103541;28;20048;-73
2023/09/22 06:08:58;;;;;;;0.95;0.95;;;13.00;99.90;;;;;;5100017;28;20140;-73
2023/09/22 06:11:24;;;;;;;0.98;0.98;;;13.00;99.90;;;;;;5102325;28;20220;-73
2023/09/22 06:13:50;;;;;;;1.30;1.20;;;13.00;99.90;;;;;;5102847;28;20778;-73
2023/09/22 06:16:16;;;;;;;1.83;1.58;;;13.00;99.90;;;;;;5100555;28;20050;-73
2023/09/22 06:18:42;;;;;;;;;;;13.00;99.90;;;;;;5098926;28;20111;-73
2023/09/22 06:21:07;;;;;;;0.68;0.68;;;13.10;99.90;;;;;;5087561;28;19923;-72
2023/09/22 06:23:33;;;;;;;1.42;1.33;;;13.10;99.90;;;;;;5098722;27;20371;-73
2023/09/22 06:26:09;;;;;;;0.93;0.93;;;13.10;99.90;;;;;;5096415;28;20040;-73
2023/09/22 06:28:36;;;;;;;1.38;1.27;;;13.10;99.90;;;;;;5101854;28;20059;-73
2023/09/22 06:31:02;;;;;;;;;;;13.10;99.90;;;;;;5099078;28;20683;-72
2023/09/22 06:33:28;;;;;;;0.37;0.37;;;13.10;99.90;;;;;;5092971;28;19936;-73
2023/09/22 06:36:02;;;;;;;1.48;0.93;;;13.10;99.90;;;;;;5098942;28;20496;-73
2023/09/22 06:38:35;;;;;;;1.08;1.08;;;13.10;99.90;;;;;;5102353;27;20068;-73
2023/09/22 06:41:02;;;;;;;0.90;0.73;;;13.20;99.90;;;;;;5101052;28;20056;-73
2023/09/22 06:43:29;;;;;;;0.85;0.82;;;13.20;99.90;;;;;;5099981;28;20044;-73
2023/09/22 06:45:58;;;;;;;6.93;4.43;;;13.20;99.90;;;;;;5098819;28;20097;-73
2023/09/22 06:48:27;;;;;;;0.45;0.45;;;13.20;99.90;;;;;;5100082;28;20043;-72
2023/09/22 06:50:57;;;;;;;2.95;2.75;;;13.20;99.90;;;;;;5099823;28;20051;-73
2023/09/22 06:53:24;;;;;;;1.77;1.67;;;13.20;99.90;;;;;;5096577;28;20063;-73
2023/09/22 06:56:10;;;;;;;1.30;1.20;;;13.20;99.90;;;;;;5092898;28;20047;-73
2023/09/22 06:58:37;;;;;;;1.37;1.17;;;13.30;99.90;;;;;;5098010;28;20137;-72
2023/09/22 07:01:16;;;;;;;0.40;0.40;;;13.40;99.90;;;;;;5096234;28;20056;-73
2023/09/22 07:03:44;;;;;;;0.60;0.60;;;13.60;99.90;;;;;;5099135;28;20051;-73
2023/09/22 07:06:13;;;;;;;2.40;2.17;;;13.70;99.90;;;;;;5101889;28;20043;-73
2023/09/22 07:08:39;;;;;;;0.68;0.65;;;13.80;99.90;;;;;;5100231;28;20047;-74
2023/09/22 07:11:08;;;;;;;;;;;13.80;99.90;;;;;;5099523;28;20214;-73
2023/09/22 07:13:34;;;;;;;0.90;0.90;;;13.80;99.90;;;;;;5100994;28;19923;-73
2023/09/22 07:16:00;;;;;;;1.77;1.67;;;13.90;99.90;;;;;;5097330;28;20097;-73
2023/09/22 07:18:26;;;;;;;;;;;13.90;99.90;;;;;;5103499;28;20513;-73
2023/09/22 07:20:55;;;;;;;0.60;0.60;;;14.00;99.90;;;;;;5101765;28;20036;-73
2023/09/22 07:23:22;;;;;;;1.38;1.27;;;14.00;99.90;;;;;;5103010;28;20101;-73
2023/09/22 07:25:58;;;;;;;1.80;0.70;;;14.10;99.90;;;;;;5097795;28;20446;-74
2023/09/22 07:28:25;;;;;;;0.32;0.32;;;14.10;99.90;;;;;;5097933;28;20465;-73
2023/09/22 07:30:51;;;;;;;0.35;0.35;;;14.00;99.90;;;;;;5097181;28;20589;-73
2023/09/22 07:33:17;;;;;;;0.80;0.75;;;14.00;99.90;;;;;;5105323;28;20044;-73
2023/09/22 07:35:45;;;;;;;2.58;1.33;;;14.00;99.90;;;;;;5112505;27;20105;-73
2023/09/22 07:38:11;;;;;;;0.70;0.57;;;13.90;99.90;;;;;;5102844;28;20558;-73
2023/09/22 07:40:36;;;;;;;2.40;2.20;;;13.90;99.90;;;;;;5101142;28;20181;-72
2023/09/22 07:43:02;;;;;;;0.55;0.55;;;13.80;99.90;;;;;;5097475;28;20542;-72
2023/09/22 07:45:28;;;;;;;;;;;13.80;99.90;;;;;;5106674;28;20112;-72
2023/09/22 07:47:54;;;;;;;0.73;0.73;;;13.80;99.90;;;;;;5097042;28;19948;-72
2023/09/22 07:50:20;;;;;;;0.63;0.63;;;13.80;99.90;;;;;;5110904;28;20039;-72
2023/09/22 07:52:46;;;;;;;0.40;0.40;;;13.70;99.90;;;;;;5102921;28;20047;-72
2023/09/22 07:55:14;;;;;;;;;;;13.70;99.90;;;;;;5105184;28;20050;-72
2023/09/22 07:57:40;;;;;;;0.50;0.50;;;13.70;99.90;;;;;;5103744;27;19923;-72
2023/09/22 08:00:10;;;;;;;;;;;13.70;99.90;;;;;;5111838;28;20075;-71
2023/09/22 08:02:36;;;;;;;0.95;0.95;;;13.70;99.90;;;;;;5107698;28;20019;-72
2023/09/22 08:05:02;;;;;;;;;;;13.70;99.90;;;;;;5101270;28;20703;-72
2023/09/22 08:07:28;;;;;;;2.08;1.48;;;13.70;99.90;;;;;;5105633;28;20021;-72
2023/09/22 08:09:54;;;;;;;1.52;1.48;;;13.70;99.90;;;;;;5102534;28;20047;-73
2023/09/22 08:12:19;;;;;;;;;;;13.70;99.90;;;;;;5105707;28;20738;-74
2023/09/22 08:14:46;;;;;;;0.80;0.80;;;13.80;99.90;;;;;;5102992;28;19928;-74
2023/09/22 08:17:12;;;;;;;0.75;0.75;;;13.80;99.90;;;;;;5106938;28;20043;-73
2023/09/22 08:19:38;;;;;;;1.00;1.00;;;13.80;99.90;;;;;;5103646;28;20040;-72
2023/09/22 08:22:04;;;;;;;;;;;13.80;99.90;;;;;;5105781;28;20039;-73
2023/09/22 08:24:29;;;;;;;1.52;1.45;;;13.70;99.90;;;;;;5110118;28;19924;-73
2023/09/22 08:26:59;;;;;;;;;;;13.80;99.90;;;;;;5098073;28;20097;-73
2023/09/22 08:29:25;;;;;;;0.85;0.85;;;13.80;99.90;;;;;;5108229;28;19919;-73
2023/09/22 08:31:51;;;;;;;0.82;0.82;;;13.80;99.90;;;;;;5104211;28;20132;-73
2023/09/22 08:34:16;;;;;;;0.98;0.98;;;13.90;99.90;;;;;;5109474;28;20051;-72
2023/09/22 08:36:43;;;;;;;0.85;0.85;;;13.90;99.90;;;;;;5109583;28;20346;-73
2023/09/22 08:39:09;;;;;;;1.83;1.60;;;14.00;99.90;;;;;;5109549;28;20055;-73
2023/09/22 08:41:38;;;;;;;0.43;0.43;;;14.20;99.90;;;;;;5101276;28;20071;-73
2023/09/22 08:44:07;;;;;;;0.80;0.80;;;14.20;99.90;;;;;;5109179;28;20047;-73
2023/09/22 08:46:35;;;;;;;2.05;0.82;;;14.20;99.90;;;;;;5099177;28;20047;-73
2023/09/22 08:49:01;;;;;;;0.30;0.30;;;14.30;99.90;;;;;;5104502;28;20451;-72
2023/09/22 08:51:27;;;;;;;1.95;0.60;;;14.20;99.90;;;;;;5104164;28;20713;-73
2023/09/22 08:53:55;;;;;;;0.77;0.77;;;14.30;99.90;;;;;;5108166;28;20127;-72
2023/09/22 08:56:25;;;;;;;0.52;0.52;;;14.30;99.90;;;;;;5094688;28;20040;-73
2023/09/22 08:58:51;;;;;;;0.75;0.70;;;14.30;99.90;;;;;;5105265;27;20159;-73
2023/09/22 09:01:17;;;;;;;1.27;1.17;;;14.30;99.90;;;;;;5097912;28;20108;-72
2023/09/22 09:03:44;;;;;;;0.75;0.75;;;14.30;99.90;;;;;;5102401;28;20035;-73
2023/09/22 09:06:14;;;;;;;1.48;1.38;;;14.30;99.90;;;;;;5098350;28;20134;-73
2023/09/22 09:08:39;;;;;;;1.48;1.38;;;14.40;99.90;;;;;;5101222;28;20051;-73
2023/09/22 09:11:10;;;;;;;0.88;0.88;;;14.50;99.90;;;;;;5096625;28;20093;-73
2023/09/22 09:13:37;;;;;;;0.73;0.70;;;14.70;99.90;;;;;;5103017;28;20493;-73
2023/09/22 09:16:07;;;;;;;0.50;0.50;;;15.10;99.90;;;;;;5100540;28;20079;-73
2023/09/22 09:18:34;;;;;;;0.95;0.95;;;15.50;99.90;;;;;;5103349;28;20090;-73
2023/09/22 09:21:14;;;;;;;0.30;0.30;;;15.40;99.90;;;;;;5103801;28;20059;-73
2023/09/22 09:23:53;;;;;;;0.30;0.30;;;15.50;99.90;;;;;;5106498;28;20039;-73
2023/09/22 09:26:37;;;;;;;2.63;0.85;;;15.60;99.90;;;;;;5098805;28;20883;-73
2023/09/22 09:29:03;;;;;;;1.25;1.25;;;15.60;99.90;;;;;;5099272;28;20145;-73
2023/09/22 09:31:46;;;;;;;0.60;0.60;;;15.70;99.90;;;;;;5101829;28;20039;-73
2023/09/22 09:34:12;;;;;;;0.55;0.55;;;15.50;99.90;;;;;;5099706;28;20745;-74
2023/09/22 09:36:38;;;;;;;0.93;0.93;;;15.50;99.90;;;;;;5102408;28;20448;-73
2023/09/22 09:39:04;;;;;;;0.57;0.57;;;15.60;99.90;;;;;;5094263;28;20056;-75
2023/09/22 09:41:30;;;;;;;;;;;15.60;99.90;;;;;;5101810;28;20440;-73
2023/09/22 09:43:58;;;;;;;0.65;0.65;;;15.50;99.90;;;;;;5102427;28;19965;-73
2023/09/22 09:46:26;;;;;;;0.68;0.68;;;15.50;99.90;;;;;;5105638;28;20023;-73
2023/09/22 09:48:55;;;;;;;0.40;0.40;;;15.60;99.90;;;;;;5104845;28;20043;-72
2023/09/22 09:51:24;;;;;;;0.57;0.57;;;15.80;99.90;;;;;;5107443;28;20482;-72
2023/09/22 09:53:52;;;;;;;1.05;0.88;;;15.90;99.90;;;;;;5108621;28;20048;-72
2023/09/22 09:56:18;;;;;;;0.40;0.40;;;15.90;99.90;;;;;;5102571;28;20081;-73
2023/09/22 09:58:48;;;;;;;0.47;0.47;;;15.90;99.90;;;;;;5106249;28;20035;-73
2023/09/22 10:01:14;;;;;;;0.55;0.55;;;15.70;99.90;;;;;;5101343;28;20086;-73
2023/09/22 10:03:40;;;;;;;;;;;15.50;99.90;;;;;;5109744;28;20046;-73
2023/09/22 10:06:09;;;;;;;0.25;0.25;;;15.40;99.90;;;;;;5098073;28;19928;-73
2023/09/22 10:08:37;;;;;;;0.43;0.43;;;15.20;99.90;;;;;;5104982;28;20541;-73
2023/09/22 10:11:05;;;;;;;0.50;0.50;;;15.10;99.90;;;;;;5106270;28;20052;-73
2023/09/22 10:13:33;;;;;;;0.93;0.70;;;15.10;99.90;;;;;;5101509;28;20160;-73
2023/09/22 10:16:04;;;;;;;0.40;0.40;;;15.20;99.90;;;;;;5101427;28;20109;-72
2023/09/22 10:18:55;;;;;;;0.28;0.28;;;15.50;99.90;;;;;;5099747;28;20488;-73
2023/09/22 10:21:35;;;;;;;0.93;0.93;;;15.90;99.90;;;;;;5097549;28;20670;-73
2023/09/22 10:24:22;;;;;;;0.20;0.20;;;16.10;99.90;;;;;;5106313;28;20048;-73
2023/09/22 10:26:54;;;;;;;0.30;0.30;;;16.20;99.90;;;;;;5100012;28;20043;-73
2023/09/22 10:29:34;;;;;;;0.20;0.20;;;16.20;99.90;;;;;;5099834;28;20047;-73
2023/09/22 10:32:18;;;;;;;0.45;0.45;;;16.30;99.90;;;;;;5102372;28;20055;-73
2023/09/22 10:34:55;;;;;;;0.28;0.28;;;16.50;99.90;;;;;;5106456;28;20468;-74
2023/09/22 10:37:32;;;;;;;0.30;0.30;;;16.60;99.90;;;;;;5094515;28;20055;-73
2023/09/22 10:40:19;;;;;;;0.45;0.40;;;16.90;99.90;;;;;;5100646;28;20090;-73
2023/09/22 10:42:52;;;;;;;0.55;0.55;;;17.20;99.90;;;;;;5102144;28;20048;-72
2023/09/22 10:45:21;;;;;;;0.40;0.40;;;17.20;99.90;;;;;;5102757;28;20054;-73
2023/09/22 10:47:57;;;;;;;0.47;0.43;;;17.30;99.90;;;;;;5103617;28;20047;-73
2023/09/22 10:50:26;;;;;;;1.45;1.00;;;17.50;99.90;;;;;;5103308;28;20053;-73
2023/09/22 10:53:03;;;;;;;0.60;0.60;;;17.70;99.90;;;;;;5101498;28;20046;-73
2023/09/22 10:55:43;;;;;;;0.38;0.38;;;17.60;99.90;;;;;;5099519;27;20051;-74
2023/09/22 10:58:18;;;;;;;0.30;0.30;;;17.30;99.90;;;;;;5100437;28;20144;-73
2023/09/22 11:01:13;;;;;;;0.40;0.40;;;17.00;99.90;;;;;;5101175;28;20401;-73
2023/09/22 11:03:53;;;;;;;0.43;0.43;;;16.80;99.90;;;;;;5087536;28;20071;-73
2023/09/22 11:06:20;;;;;;;0.35;0.35;;;16.80;99.90;;;;;;5105496;27;20046;-73
2023/09/22 11:08:53;;;;;;;0.82;0.82;;;16.70;99.90;;;;;;5112402;27;20955;-73
2023/09/22 11:11:20;;;;;;;0.40;0.40;;;16.70;99.90;;;;;;5108040;27;20039;-73
2023/09/22 11:13:58;;;;;;;0.30;0.30;;;16.60;99.90;;;;;;5110736;27;20458;-74
2023/09/22 11:16:24;;;;;;;0.30;0.30;;;16.60;99.90;;;;;;5104957;28;20082;-73
2023/09/22 11:19:04;;;;;;;0.50;0.50;;;16.60;99.90;;;;;;5106329;27;20039;-74
2023/09/22 11:21:46;;;;;;;0.60;0.60;;;16.70;99.90;;;;;;5092140;27;20047;-73
2023/09/22 11:24:12;;;;;;;0.63;0.63;;;16.80;99.90;;;;;;5102135;27;20123;-74
2023/09/22 11:26:41;;;;;;;;;;;17.00;99.90;;;;;;5095696;27;20047;-73
2023/09/22 11:29:06;;;;;;;0.30;0.30;;;17.20;99.90;;;;;;5099798;27;19924;-73
2023/09/22 11:31:32;;;;;;;0.50;0.50;;;17.50;99.90;;;;;;5101189;27;20039;-73
2023/09/22 11:34:03;;;;;;;;;;;17.60;99.90;;;;;;5105614;27;20043;-73
2023/09/22 11:36:48;;;;;;;0.93;0.93;;;17.70;99.90;;;;;;5096887;27;19981;-74
2023/09/22 11:39:27;;;;;;;0.30;0.30;;;17.70;99.90;;;;;;5098572;27;20052;-73
2023/09/22 11:41:53;;;;;;;0.60;0.60;;;17.60;99.90;;;;;;5101525;27;20047;-72
2023/09/22 11:44:19;;;;;;;0.30;0.30;;;17.50;99.90;;;;;;5098406;27;20093;-73
2023/09/22 11:46:47;;;;;;;0.60;0.50;;;17.40;99.90;;;;;;5101137;27;20051;-73
2023/09/22 11:49:13;;;;;;;0.50;0.50;;;17.40;99.90;;;;;;5102211;27;20062;-73
2023/09/22 11:51:55;;;;;;;0.30;0.30;;;17.60;99.90;;;;;;5097780;27;20043;-73
2023/09/22 11:54:26;;;;;;;0.93;0.93;;;17.90;99.90;;;;;;5101376;27;20477;-73
2023/09/22 11:56:58;;;;;;;0.30;0.30;;;18.10;99.90;;;;;;5097105;28;20051;-73
2023/09/22 11:59:27;;;;;;;0.82;0.82;;;18.30;99.90;;;;;;5103055;28;20050;-74
2023/09/22 12:01:53;;;;;;;0.47;0.47;;;18.40;99.90;;;;;;5099600;28;20578;-73
2023/09/22 12:04:22;;;;;;;0.47;0.47;;;18.40;99.90;;;;;;5096834;28;20184;-72
2023/09/22 12:06:49;;;;;;;0.40;0.40;;;18.30;99.90;;;;;;5097738;28;20043;-73
2023/09/22 12:09:15;;;;;;;0.30;0.30;;;18.20;99.90;;;;;;5100346;28;20701;-74
2023/09/22 12:11:41;;;;;;;;;;;18.10;99.90;;;;;;5097788;28;20126;-73
2023/09/22 12:14:08;;;;;;;0.35;0.35;;;17.90;99.90;;;;;;5098619;28;19923;-73
2023/09/22 12:16:34;;;;;;;0.38;0.38;;;17.80;99.90;;;;;;5094922;28;20126;-73
2023/09/22 12:18:59;;;;;;;;;;;17.70;99.90;;;;;;5101673;28;20835;-73
2023/09/22 12:21:29;;;;;;;0.40;0.40;;;17.50;99.90;;;;;;5095672;28;19924;-73
2023/09/22 12:23:55;;;;;;;0.30;0.30;;;17.40;99.90;;;;;;5099732;28;20067;-73
2023/09/22 12:26:21;;;;;;;1.10;0.70;;;17.30;99.90;;;;;;5091949;28;21284;-73
2023/09/22 12:28:49;;;;;;;0.25;0.25;;;17.10;99.90;;;;;;5098594;28;20087;-73
2023/09/22 12:31:18;;;;;;;0.30;0.30;;;16.90;99.90;;;;;;5097249;28;20534;-73
2023/09/22 12:33:47;;;;;;;0.77;0.77;;;16.90;99.90;;;;;;5097155;28;20039;-73
2023/09/22 12:36:15;;;;;;;0.30;0.30;;;17.20;99.90;;;;;;5096755;28;20060;-73
2023/09/22 12:38:44;;;;;;;0.30;0.30;;;17.30;99.90;;;;;;5097648;28;20486;-74
2023/09/22 12:41:11;;;;;;;0.30;0.30;;;17.50;99.90;;;;;;5103154;27;20036;-73
2023/09/22 12:43:37;;;;;;;0.30;0.30;;;17.70;99.90;;;;;;5097098;28;20102;-73
2023/09/22 12:46:08;;;;;;;1.42;0.90;;;17.60;99.90;;;;;;5099617;28;20044;-72
2023/09/22 12:48:33;;;;;;;0.25;0.25;;;17.50;99.90;;;;;;5098742;28;20576;-73
2023/09/22 12:50:59;;;;;;;;;;;17.40;99.90;;;;;;5097114;28;20048;-73
2023/09/22 12:53:25;;;;;;;0.52;0.52;;;17.20;99.90;;;;;;5097107;28;20054;-73
2023/09/22 12:55:57;;;;;;;0.47;0.47;;;17.20;99.90;;;;;;5099001;28;20039;-74
2023/09/22 12:58:27;;;;;;;0.55;0.55;;;17.20;99.90;;;;;;5092056;28;20947;-73